Time;durP1;ratioP1;P1;durP2;ratioP2;P2;SDS_P1;SDS_P2;PMS_P1;PMS_P2;Temp;Humidity;BMP_temperature;BMP_pressure;BME280_temperature;BME280_humidity;BME280_pressure;Samples;Min_cycle;Max_cycle;Signal;HPM_P1;HPM_P2
2022/11/27 00:00:38;;;;;;;8.50;6.40;;;;;;;0.47;100.00;99043.47;6289926;28;20231;-43
2022/11/27 00:03:41;;;;;;;9.17;6.47;;;;;;;0.51;100.00;99047.72;6294099;28;20288;-43
2022/11/27 00:06:44;;;;;;;10.27;6.60;;;;;;;0.53;100.00;99042.50;6294827;28;20590;-43
2022/11/27 00:09:46;;;;;;;9.33;6.87;;;;;;;0.56;100.00;99043.31;6295606;28;20301;-43
2022/11/27 00:12:48;;;;;;;9.37;6.83;;;;;;;0.61;100.00;99035.41;6296223;28;20327;-43
2022/11/27 00:15:50;;;;;;;11.80;6.87;;;;;;;0.67;100.00;99031.00;6293620;28;20234;-42
2022/11/27 00:18:53;;;;;;;9.23;7.00;;;;;;;0.72;100.00;99038.69;6277468;28;20249;-45
2022/11/27 00:21:55;;;;;;;10.60;7.37;;;;;;;0.78;100.00;99043.78;6292300;28;20580;-43
2022/11/27 00:24:57;;;;;;;12.17;8.23;;;;;;;0.86;100.00;99033.22;6290032;28;20229;-43
2022/11/27 00:27:59;;;;;;;10.37;7.90;;;;;;;0.91;100.00;99032.22;6294160;28;20380;-43
2022/11/27 00:31:04;;;;;;;11.27;7.40;;;;;;;0.98;100.00;99027.78;6293627;28;20381;-43
2022/11/27 00:34:07;;;;;;;14.37;7.80;;;;;;;1.04;100.00;99032.84;6286376;28;20242;-43
2022/11/27 00:37:10;;;;;;;12.23;7.20;;;;;;;1.06;100.00;99028.47;6292177;28;20246;-43
2022/11/27 00:40:13;;;;;;;10.73;7.23;;;;;;;1.08;100.00;99029.31;6293491;28;20341;-43
2022/11/27 00:43:15;;;;;;;12.93;7.97;;;;;;;1.09;100.00;99037.09;6294084;28;20615;-44
2022/11/27 00:46:20;;;;;;;10.60;7.10;;;;;;;1.05;100.00;99037.16;6293780;28;20292;-43
2022/11/27 00:49:29;;;;;;;11.60;7.37;;;;;;;1.02;100.00;99032.88;6261190;28;20239;-43
2022/11/27 00:52:31;;;;;;;8.37;7.07;;;;;;;0.98;100.00;99035.59;6284647;28;20237;-43
2022/11/27 00:55:33;;;;;;;10.30;6.90;;;;;;;0.92;100.00;99033.94;6292538;28;20228;-43
2022/11/27 00:58:35;;;;;;;10.70;7.10;;;;;;;0.89;100.00;99036.63;6292626;28;20253;-43
2022/11/27 01:01:41;;;;;;;10.30;7.00;;;;;;;0.84;100.00;99033.25;6294723;28;20505;-43
2022/11/27 01:04:47;;;;;;;9.50;7.07;;;;;;;0.77;100.00;99036.00;6285729;28;20243;-44
2022/11/27 01:07:49;;;;;;;10.13;6.27;;;;;;;0.68;100.00;99032.69;6293348;28;20243;-43
2022/11/27 01:10:56;;;;;;;12.13;6.27;;;;;;;0.62;100.00;99032.78;6293614;28;20243;-42
2022/11/27 01:14:01;;;;;;;8.87;6.27;;;;;;;0.57;100.00;99039.84;6289765;28;20240;-43
2022/11/27 01:17:03;;;;;;;8.67;6.20;;;;;;;0.49;100.00;99039.13;6290581;28;20281;-43
2022/11/27 01:20:06;;;;;;;8.33;6.23;;;;;;;0.42;100.00;99037.50;6287655;28;20307;-45
2022/11/27 01:23:08;;;;;;;9.07;5.80;;;;;;;0.38;100.00;99040.19;6291166;28;20332;-44
2022/11/27 01:26:12;;;;;;;9.63;5.80;;;;;;;0.32;100.00;99036.81;6274541;28;20630;-43
2022/11/27 01:29:14;;;;;;;12.37;6.37;;;;;;;0.29;100.00;99038.63;6288003;28;20237;-43
2022/11/27 01:32:16;;;;;;;9.30;6.53;;;;;;;0.30;100.00;99032.56;6288861;28;20233;-43
2022/11/27 01:35:18;;;;;;;11.67;6.70;;;;;;;0.24;100.00;99037.81;6290794;28;20242;-46
2022/11/27 01:38:21;;;;;;;10.10;6.07;;;;;;;0.16;100.00;99037.13;6292041;28;20234;-43
2022/11/27 01:41:27;;;;;;;9.20;6.37;;;;;;;0.06;100.00;99030.38;6293295;28;20735;-43
2022/11/27 01:44:31;;;;;;;10.10;7.10;;;;;;;-0.02;100.00;99030.50;6280579;28;20664;-44
2022/11/27 01:47:41;;;;;;;9.07;6.60;;;;;;;-0.04;100.00;99034.84;6293153;28;20226;-44
2022/11/27 01:50:43;;;;;;;9.70;6.57;;;;;;;-0.10;100.00;99033.19;6291303;28;20313;-44
2022/11/27 01:53:46;;;;;;;9.47;6.00;;;;;;;-0.14;100.00;99025.50;6288740;28;20238;-43
2022/11/27 01:56:55;;;;;;;8.27;6.17;;;;;;;-0.18;100.00;99024.69;6290090;28;20722;-43
2022/11/27 01:59:59;;;;;;;11.00;6.07;;;;;;;-0.23;100.00;99031.69;6287438;28;20283;-43
2022/11/27 02:03:01;;;;;;;10.50;7.13;;;;;;;-0.28;100.00;99028.28;6291893;28;20230;-43
2022/11/27 02:06:04;;;;;;;9.53;6.67;;;;;;;-0.28;100.00;99025.69;6292429;28;20210;-45
2022/11/27 02:09:06;;;;;;;10.20;6.17;;;;;;;-0.32;100.00;99023.19;6292469;28;20268;-43
2022/11/27 02:12:25;;;;;;;9.90;6.47;;;;;;;-0.39;100.00;99022.41;6288894;28;20226;-44
2022/11/27 02:15:38;;;;;;;13.50;8.30;;;;;;;-0.36;100.00;99024.97;6288328;28;20238;-43
2022/11/27 02:18:55;;;;;;;10.83;7.20;;;;;;;-0.40;100.00;99025.91;6274564;28;20230;-44
2022/11/27 02:22:03;;;;;;;12.93;6.97;;;;;;;-0.45;100.00;99027.69;6289644;28;20593;-44
2022/11/27 02:25:26;;;;;;;10.60;7.30;;;;;;;-0.50;100.00;99024.34;6290052;28;20618;-43
2022/11/27 02:28:32;;;;;;;11.53;6.90;;;;;;;-0.54;100.00;99028.69;6287358;28;20237;-44
2022/11/27 02:31:57;;;;;;;15.17;7.60;;;;;;;-0.57;100.00;99025.28;6287130;28;20343;-45
2022/11/27 02:35:03;;;;;;;13.30;6.77;;;;;;;-0.62;100.00;99027.94;6290557;28;20241;-44
2022/11/27 02:38:29;;;;;;;12.90;7.73;;;;;;;-0.63;100.00;99027.97;6289921;28;20238;-47
2022/11/27 02:41:39;;;;;;;13.40;8.07;;;;;;;-0.66;100.00;99023.69;6288609;28;20253;-46
2022/11/27 02:44:57;;;;;;;10.40;7.97;;;;;;;-0.66;100.00;99023.69;6285729;28;20574;-47
2022/11/27 02:47:59;;;;;;;15.03;7.53;;;;;;;-0.68;100.00;99022.84;6289412;28;20607;-45
2022/11/27 02:51:04;;;;;;;10.57;7.30;;;;;;;-0.73;100.00;99016.00;6287307;28;20276;-45
2022/11/27 02:54:12;;;;;;;12.83;8.20;;;;;;;-0.78;100.00;99026.44;6288605;28;20703;-50
2022/11/27 02:57:15;;;;;;;12.40;7.37;;;;;;;-0.81;100.00;99019.56;6290164;28;20242;-45
2022/11/27 03:00:18;;;;;;;13.63;8.00;;;;;;;-0.84;100.00;99014.44;6290755;28;20230;-45
2022/11/27 03:03:25;;;;;;;11.07;7.73;;;;;;;-0.84;100.00;99024.78;6291586;28;20214;-43
2022/11/27 03:06:39;;;;;;;14.60;8.60;;;;;;;-0.87;100.00;99017.03;6289482;28;20313;-43
2022/11/27 03:09:45;;;;;;;11.93;7.93;;;;;;;-0.92;100.00;99018.84;6285015;28;20332;-43
2022/11/27 03:12:48;;;;;;;11.57;7.47;;;;;;;-0.96;100.00;99017.16;6292248;28;20238;-45
2022/11/27 03:16:04;;;;;;;13.13;7.37;;;;;;;-0.98;100.00;99018.06;6254468;28;20257;-44
2022/11/27 03:19:17;;;;;;;9.87;6.77;;;;;;;-1.01;100.00;99003.44;6284690;28;20601;-45
2022/11/27 03:22:19;;;;;;;11.13;7.40;;;;;;;-1.05;100.00;99001.75;6285636;28;20241;-45
2022/11/27 03:25:22;;;;;;;10.30;7.23;;;;;;;-1.01;100.00;99003.44;6265954;28;20234;-43
2022/11/27 03:28:27;;;;;;;11.40;7.60;;;;;;;-1.02;100.00;98993.09;6282853;28;20242;-43
2022/11/27 03:31:30;;;;;;;13.10;7.20;;;;;;;-1.03;100.00;98999.13;6289660;28;20650;-44
2022/11/27 03:34:32;;;;;;;11.97;7.50;;;;;;;-1.07;100.00;98990.53;6291049;28;20244;-43
2022/11/27 03:37:35;;;;;;;14.17;7.80;;;;;;;-1.08;100.00;98999.19;6291050;28;20261;-45
2022/11/27 03:40:52;;;;;;;11.37;7.80;;;;;;;-1.11;100.00;99004.44;6288593;28;20598;-45
2022/11/27 03:44:10;;;;;;;12.47;8.00;;;;;;;-1.13;100.00;99001.84;6288452;28;20238;-44
2022/11/27 03:47:21;;;;;;;13.03;8.87;;;;;;;-1.14;100.00;99001.88;6272066;28;20234;-44
2022/11/27 03:50:32;;;;;;;13.03;7.53;;;;;;;-1.14;100.00;99000.13;6288463;28;20324;-43
2022/11/27 03:53:59;;;;;;;11.97;7.90;;;;;;;-1.14;100.00;98996.69;6285754;28;20233;-43
2022/11/27 03:57:16;;;;;;;13.17;7.87;;;;;;;-1.14;100.00;98989.78;6285157;28;20230;-44
2022/11/27 04:00:19;;;;;;;12.83;7.93;;;;;;;-1.12;100.00;98989.75;6287733;28;20583;-43
2022/11/27 04:03:27;;;;;;;13.60;8.47;;;;;;;-1.13;100.00;98991.50;6269999;28;20230;-44
2022/11/27 04:06:29;;;;;;;13.77;8.07;;;;;;;-1.17;100.00;98979.44;6284322;28;20261;-45
2022/11/27 04:09:32;;;;;;;12.80;7.50;;;;;;;-1.17;100.00;98983.75;6289477;28;20320;-44
2022/11/27 04:12:34;;;;;;;16.27;8.90;;;;;;;-1.20;100.00;98982.06;6294242;28;20880;-44
2022/11/27 04:15:36;;;;;;;15.23;9.13;;;;;;;-1.18;100.00;98982.03;6294609;28;20273;-43
2022/11/27 04:18:38;;;;;;;15.23;8.53;;;;;;;-1.17;100.00;98973.41;6291951;28;20237;-43
2022/11/27 04:21:40;;;;;;;15.07;8.50;;;;;;;-1.18;100.00;98979.47;6289781;28;20247;-43
2022/11/27 04:24:42;;;;;;;13.40;8.60;;;;;;;-1.18;100.00;98980.31;6293730;28;20329;-44
2022/11/27 04:27:44;;;;;;;15.27;8.97;;;;;;;-1.21;100.00;98980.38;6288477;28;20242;-44
2022/11/27 04:30:51;;;;;;;14.03;8.30;;;;;;;-1.23;100.00;98979.53;6292970;28;20257;-44
2022/11/27 04:33:53;;;;;;;16.13;8.87;;;;;;;-1.25;100.00;98983.88;6295450;28;20310;-44
2022/11/27 04:36:56;;;;;;;15.93;8.83;;;;;;;-1.23;100.00;98984.72;6288420;28;20316;-43
2022/11/27 04:39:58;;;;;;;18.37;9.23;;;;;;;-1.21;100.00;98989.88;6289169;28;20805;-43
2022/11/27 04:43:00;;;;;;;14.10;9.30;;;;;;;-1.23;100.00;98979.53;6295335;28;20261;-44
2022/11/27 04:46:03;;;;;;;19.33;8.90;;;;;;;-1.23;100.00;98986.44;6292816;28;20226;-43
2022/11/27 04:49:05;;;;;;;14.43;8.83;;;;;;;-1.22;100.00;98989.03;6290962;28;20588;-44
2022/11/27 04:52:07;;;;;;;15.80;9.20;;;;;;;-1.20;100.00;98987.25;6285607;28;20248;-44
2022/11/27 04:55:09;;;;;;;13.10;9.00;;;;;;;-1.19;100.00;98978.59;6288032;28;20234;-43
2022/11/27 04:58:11;;;;;;;19.20;9.53;;;;;;;-1.22;100.00;98976.06;6294858;28;20332;-44
2022/11/27 05:01:14;;;;;;;16.30;9.30;;;;;;;-1.24;100.00;98976.97;6287926;28;20244;-43
2022/11/27 05:04:16;;;;;;;14.27;8.93;;;;;;;-1.25;100.00;98975.25;6270168;28;20240;-46
2022/11/27 05:07:18;;;;;;;15.80;9.10;;;;;;;-1.27;100.00;98967.47;6292238;28;20319;-44
2022/11/27 05:10:21;;;;;;;14.03;8.57;;;;;;;-1.27;100.00;98971.81;6290687;28;20222;-44
2022/11/27 05:13:23;;;;;;;12.37;8.50;;;;;;;-1.28;100.00;98972.69;6295673;28;20260;-44
2022/11/27 05:16:25;;;;;;;16.47;8.97;;;;;;;-1.32;100.00;98973.59;6292456;28;20341;-43
2022/11/27 05:19:30;;;;;;;17.73;9.00;;;;;;;-1.34;100.00;98970.19;6292610;28;20344;-45
2022/11/27 05:22:32;;;;;;;15.80;9.43;;;;;;;-1.34;100.00;98965.00;6287913;28;20272;-44
2022/11/27 05:25:34;;;;;;;15.00;9.50;;;;;;;-1.37;100.00;98977.97;6292840;28;20343;-44
2022/11/27 05:28:36;;;;;;;13.30;8.63;;;;;;;-1.41;100.00;98976.31;6291489;28;20317;-45
2022/11/27 05:31:39;;;;;;;15.87;9.87;;;;;;;-1.42;100.00;98974.59;6292294;28;20272;-44
2022/11/27 05:34:41;;;;;;;21.17;8.93;;;;;;;-1.44;100.00;98969.44;6280909;28;20368;-45
2022/11/27 05:37:43;;;;;;;17.00;9.60;;;;;;;-1.45;100.00;98967.72;6292852;28;20743;-44
2022/11/27 05:40:46;;;;;;;13.27;8.47;;;;;;;-1.47;100.00;98969.47;6292270;28;20283;-44
2022/11/27 05:43:49;;;;;;;15.77;8.20;;;;;;;-1.53;100.00;98964.38;6290437;28;20234;-45
2022/11/27 05:46:51;;;;;;;14.30;8.20;;;;;;;-1.56;100.00;98967.84;6292394;28;20273;-44
2022/11/27 05:49:53;;;;;;;13.77;8.67;;;;;;;-1.61;100.00;98971.38;6294757;28;20233;-43
2022/11/27 05:52:55;;;;;;;13.60;8.27;;;;;;;-1.63;100.00;98963.63;6256758;28;20229;-45
2022/11/27 05:56:06;;;;;;;17.83;8.60;;;;;;;-1.64;100.00;98972.25;6285047;28;20229;-44
2022/11/27 05:59:09;;;;;;;16.80;9.10;;;;;;;-1.65;100.00;98975.69;6268345;28;20590;-46
2022/11/27 06:02:11;;;;;;;15.60;8.03;;;;;;;-1.65;100.00;98970.53;6291741;28;20233;-44
2022/11/27 06:05:22;;;;;;;16.30;8.20;;;;;;;-1.68;100.00;98980.03;6292025;28;20228;-43
2022/11/27 06:08:24;;;;;;;12.23;7.50;;;;;;;-1.69;100.00;98980.91;6289818;28;20233;-45
2022/11/27 06:11:27;;;;;;;10.83;7.17;;;;;;;-1.67;100.00;98989.53;6289217;28;20226;-43
2022/11/27 06:14:30;;;;;;;15.67;7.50;;;;;;;-1.65;100.00;98992.97;6285284;28;20296;-43
2022/11/27 06:17:32;;;;;;;13.63;7.77;;;;;;;-1.60;100.00;98993.78;6290931;28;20218;-44
2022/11/27 06:20:34;;;;;;;15.63;8.40;;;;;;;-1.56;100.00;98996.31;6273994;28;20458;-45
2022/11/27 06:23:44;;;;;;;14.30;8.37;;;;;;;-1.51;100.00;98989.38;6288112;28;20222;-43
2022/11/27 06:26:46;;;;;;;14.13;8.60;;;;;;;-1.45;100.00;98983.25;6273581;28;20325;-43
2022/11/27 06:29:49;;;;;;;13.83;8.53;;;;;;;-1.39;100.00;98990.06;6291920;28;20234;-43
2022/11/27 06:32:51;;;;;;;16.83;9.77;;;;;;;-1.36;100.00;98979.69;6289954;28;20324;-43
2022/11/27 06:35:54;;;;;;;13.90;8.07;;;;;;;-1.29;100.00;98987.34;6291189;28;20234;-43
2022/11/27 06:38:56;;;;;;;14.87;8.93;;;;;;;-1.22;100.00;98991.59;6288127;28;20368;-43
2022/11/27 06:41:59;;;;;;;14.90;8.67;;;;;;;-1.21;100.00;98982.97;6290839;28;20383;-43
2022/11/27 06:45:01;;;;;;;17.70;8.97;;;;;;;-1.18;100.00;98988.09;6286423;28;20268;-43
2022/11/27 06:48:03;;;;;;;17.43;9.60;;;;;;;-1.14;100.00;98986.31;6290534;28;20213;-44
2022/11/27 06:51:07;;;;;;;13.33;8.60;;;;;;;-1.13;100.00;98988.03;6284286;28;20221;-43
2022/11/27 06:54:09;;;;;;;13.30;8.07;;;;;;;-1.09;100.00;98987.09;6287049;28;20217;-44
2022/11/27 06:57:13;;;;;;;14.03;7.40;;;;;;;-1.08;100.00;98988.81;6287984;28;20214;-43
2022/11/27 07:00:17;;;;;;;16.53;8.30;;;;;;;-1.05;100.00;98978.44;6290223;28;20234;-44
2022/11/27 07:03:20;;;;;;;11.17;7.43;;;;;;;-0.98;100.00;98984.38;6287215;28;20606;-43
2022/11/27 07:06:23;;;;;;;9.67;6.97;;;;;;;-0.96;100.00;98987.81;6288009;28;20671;-43
2022/11/27 07:09:26;;;;;;;13.17;8.30;;;;;;;-0.93;100.00;98987.78;6271658;28;20716;-46
2022/11/27 07:12:28;;;;;;;12.60;7.67;;;;;;;-0.91;100.00;98992.06;6290287;28;20232;-43
2022/11/27 07:15:31;;;;;;;16.53;8.37;;;;;;;-0.87;100.00;98985.09;6283734;28;20341;-43
2022/11/27 07:18:39;;;;;;;17.63;8.37;;;;;;;-0.80;100.00;98984.97;6289799;28;20218;-43
2022/11/27 07:21:42;;;;;;;16.53;8.63;;;;;;;-0.75;100.00;98992.69;6270984;28;20233;-43
2022/11/27 07:24:44;;;;;;;14.03;7.93;;;;;;;-0.70;100.00;98980.56;6280569;28;20692;-44
2022/11/27 07:27:46;;;;;;;13.43;9.03;;;;;;;-0.64;100.00;98983.03;6290434;28;20229;-44
2022/11/27 07:30:55;;;;;;;15.77;8.43;;;;;;;-0.56;100.00;98988.09;6271037;28;20249;-44
2022/11/27 07:33:57;;;;;;;12.00;8.00;;;;;;;-0.56;100.00;98975.16;6271276;28;20218;-44
2022/11/27 07:36:59;;;;;;;13.53;7.90;;;;;;;-0.53;100.00;98981.16;6292594;28;20226;-43
2022/11/27 07:40:01;;;;;;;11.57;7.60;;;;;;;-0.49;100.00;98984.53;6292190;28;20603;-43
2022/11/27 07:43:04;;;;;;;13.50;8.73;;;;;;;-0.40;100.00;98979.22;6295326;28;20304;-43
2022/11/27 07:46:12;;;;;;;14.53;9.17;;;;;;;-0.32;100.00;98976.50;6296759;28;20234;-43
2022/11/27 07:49:14;;;;;;;15.87;9.13;;;;;;;-0.21;100.00;98972.88;6293817;28;20226;-44
2022/11/27 07:52:16;;;;;;;18.37;9.97;;;;;;;-0.16;100.00;98978.81;6291907;28;20218;-44
2022/11/27 07:55:19;;;;;;;18.57;10.73;;;;;;;-0.13;100.00;98978.78;6284773;28;20237;-43
2022/11/27 07:58:21;;;;;;;17.77;8.77;;;;;;;-0.07;100.00;98983.00;6279225;28;20313;-43
2022/11/27 08:01:23;;;;;;;15.73;9.37;;;;;;;-0.01;100.00;98968.19;6292920;28;20256;-45
2022/11/27 08:04:26;;;;;;;16.90;9.47;;;;;;;0.06;100.00;98970.69;6291304;28;20293;-43
2022/11/27 08:07:29;;;;;;;21.27;10.73;;;;;;;0.16;100.00;98961.84;6293574;28;20256;-43
2022/11/27 08:10:35;;;;;;;15.40;9.13;;;;;;;0.23;100.00;98969.47;6293245;28;20222;-43
2022/11/27 08:13:37;;;;;;;14.03;9.33;;;;;;;0.33;100.00;98967.56;6293580;28;20416;-44
2022/11/27 08:16:40;;;;;;;18.07;10.83;;;;;;;0.44;100.00;98963.03;6287823;28;20229;-43
2022/11/27 08:19:42;;;;;;;22.23;11.37;;;;;;;0.62;100.00;98962.66;6274311;28;20733;-45
2022/11/27 08:22:45;;;;;;;20.30;11.27;;;;;;;0.72;100.00;98959.00;6289313;28;20372;-43
2022/11/27 08:25:47;;;;;;;20.97;10.10;;;;;;;0.77;100.00;98952.88;6292451;28;20262;-44
2022/11/27 08:28:51;;;;;;;18.97;9.63;;;;;;;0.82;100.00;98957.06;6294424;28;20234;-46
2022/11/27 08:31:54;;;;;;;20.77;10.40;;;;;;;0.83;100.00;98948.38;6293074;28;20708;-44
2022/11/27 08:34:56;;;;;;;13.67;9.60;;;;;;;0.83;100.00;98952.72;6293522;28;20244;-43
2022/11/27 08:37:58;;;;;;;16.27;9.00;;;;;;;0.88;100.00;98946.56;6290703;28;20271;-44
2022/11/27 08:41:03;;;;;;;15.87;9.30;;;;;;;1.05;100.00;98959.19;6294619;28;20234;-43
2022/11/27 08:44:05;;;;;;;17.07;10.47;;;;;;;1.26;100.00;98955.25;6294510;28;20230;-43
2022/11/27 08:47:10;;;;;;;15.50;9.20;;;;;;;1.44;100.00;98947.88;6293453;28;20305;-44
2022/11/27 08:50:12;;;;;;;15.37;9.63;;;;;;;1.59;100.00;98951.88;6293213;28;20234;-44
2022/11/27 08:53:15;;;;;;;15.17;9.63;;;;;;;1.78;100.00;98954.88;6290337;28;20231;-44
2022/11/27 08:56:22;;;;;;;19.13;11.13;;;;;;;2.03;100.00;98942.94;6292591;28;20233;-43
2022/11/27 08:59:24;;;;;;;19.37;11.27;;;;;;;2.29;100.00;98944.88;6291156;28;20599;-42
2022/11/27 09:02:26;;;;;;;15.37;11.00;;;;;;;2.55;100.00;98947.63;6293238;28;20652;-44
2022/11/27 09:05:29;;;;;;;20.30;12.17;;;;;;;2.83;100.00;98946.81;6292832;28;20711;-43
2022/11/27 09:08:32;;;;;;;21.40;12.90;;;;;;;3.13;100.00;98945.06;6290437;28;20317;-43
2022/11/27 09:11:34;;;;;;;19.53;12.33;;;;;;;3.44;100.00;98940.63;6291810;28;20245;-43
2022/11/27 09:14:36;;;;;;;21.30;13.60;;;;;;;3.61;100.00;98938.31;6291248;28;20573;-42
2022/11/27 09:17:39;;;;;;;18.67;12.20;;;;;;;3.89;100.00;98938.28;6293264;28;20237;-42
2022/11/27 09:20:41;;;;;;;23.97;14.60;;;;;;;4.20;100.00;98932.84;6285918;28;20794;-42
2022/11/27 09:23:43;;;;;;;24.30;14.77;;;;;;;4.47;100.00;98932.81;6288313;28;20230;-43
2022/11/27 09:26:46;;;;;;;23.00;13.70;;;;;;;4.68;100.00;98935.50;6292155;28;20233;-42
2022/11/27 09:29:48;;;;;;;18.43;12.57;;;;;;;4.85;100.00;98932.25;6291429;28;20625;-42
2022/11/27 09:32:51;;;;;;;17.53;12.23;;;;;;;5.09;100.00;98930.50;6290095;28;20249;-42
2022/11/27 09:35:53;;;;;;;17.53;11.93;;;;;;;5.39;100.00;98925.84;6292067;28;20234;-42
2022/11/27 09:38:59;;;;;;;19.70;12.63;;;;;;;5.72;100.00;98918.38;6289995;28;20323;-42
2022/11/27 09:42:03;;;;;;;17.60;11.20;;;;;;;5.99;100.00;98903.34;6286154;28;20448;-42
2022/11/27 09:45:11;;;;;;;15.87;10.80;;;;;;;6.39;100.00;98907.72;6291426;28;20294;-45
2022/11/27 09:48:21;;;;;;;13.53;9.20;;;;;;;6.78;96.22;98903.31;6289360;28;20220;-42
2022/11/27 09:51:33;;;;;;;11.77;9.10;;;;;;;7.14;94.94;98908.63;6290763;28;20231;-42
2022/11/27 09:54:56;;;;;;;16.47;7.73;;;;;;;7.50;91.68;98898.13;6271225;28;20589;-43
2022/11/27 09:58:06;;;;;;;11.53;6.87;;;;;;;7.76;90.28;98902.13;6285178;28;20283;-44
2022/11/27 10:01:14;;;;;;;11.03;6.67;;;;;;;7.84;86.57;98883.34;6286495;28;20637;-44
2022/11/27 10:04:19;;;;;;;12.50;6.53;;;;;;;7.92;83.43;98875.94;6289045;28;20781;-43
2022/11/27 10:07:46;;;;;;;7.70;5.40;;;;;;;8.19;83.31;98881.56;6265382;28;20233;-44
2022/11/27 10:10:57;;;;;;;7.83;5.17;;;;;;;8.41;81.90;98864.63;6287500;28;20226;-43
2022/11/27 10:14:12;;;;;;;8.43;4.60;;;;;;;8.27;77.23;98868.88;6291330;28;20230;-41
2022/11/27 10:17:24;;;;;;;6.17;4.40;;;;;;;7.79;77.86;98850.25;6288902;28;20234;-41
2022/11/27 10:20:45;;;;;;;7.37;4.37;;;;;;;7.40;78.39;98858.34;6290922;28;20229;-41
2022/11/27 10:24:02;;;;;;;6.63;4.23;;;;;;;7.14;77.87;98856.13;6285527;28;20375;-41
2022/11/27 10:27:21;;;;;;;7.20;3.40;;;;;;;6.97;77.30;98841.19;6290245;28;20233;-43
2022/11/27 10:30:26;;;;;;;9.27;3.23;;;;;;;6.75;75.80;98848.34;6290191;28;20233;-41
2022/11/27 10:33:41;;;;;;;6.23;3.90;;;;;;;6.55;75.78;98836.16;6289464;28;20227;-42
2022/11/27 10:36:47;;;;;;;6.43;3.87;;;;;;;6.40;75.63;98843.84;6288555;28;20286;-43
2022/11/27 10:39:55;;;;;;;6.03;3.90;;;;;;;6.30;77.12;98840.78;6292098;28;20371;-41
2022/11/27 10:43:18;;;;;;;6.03;4.03;;;;;;;6.19;79.72;98833.38;6289467;28;20261;-40
2022/11/27 10:46:28;;;;;;;8.33;4.23;;;;;;;6.04;82.21;98828.84;6286865;28;20244;-40
2022/11/27 10:49:31;;;;;;;5.13;3.70;;;;;;;5.97;82.85;98826.56;6285238;28;20709;-42
2022/11/27 10:52:33;;;;;;;6.53;4.00;;;;;;;6.02;84.04;98821.94;6287913;28;20226;-42
2022/11/27 10:55:57;;;;;;;5.43;3.70;;;;;;;6.05;83.77;98816.59;6288321;28;20230;-42
2022/11/27 10:59:09;;;;;;;5.20;3.43;;;;;;;6.08;84.97;98809.47;6286748;28;20573;-41
2022/11/27 11:02:32;;;;;;;4.80;3.10;;;;;;;6.10;85.57;98810.22;6289890;28;20798;-42
2022/11/27 11:05:34;;;;;;;7.00;4.50;;;;;;;6.10;86.04;98807.59;6290838;28;20233;-42
2022/11/27 11:09:13;;;;;;;11.53;6.37;;;;;;;6.01;81.44;98804.53;6287137;28;20235;-40
2022/11/27 11:12:19;;;;;;;6.63;4.60;;;;;;;6.10;81.49;98806.75;6286693;28;20587;-41
2022/11/27 11:15:22;;;;;;;8.93;5.10;;;;;;;6.20;81.58;98805.41;6291096;28;20218;-42
2022/11/27 11:18:33;;;;;;;10.87;5.20;;;;;;;6.25;79.63;98798.22;6290699;28;20281;-42
2022/11/27 11:21:41;;;;;;;8.20;4.67;;;;;;;6.37;79.32;98791.56;6290268;28;20662;-41
2022/11/27 11:24:52;;;;;;;7.00;4.23;;;;;;;6.52;80.44;98785.59;6290712;28;20238;-41
2022/11/27 11:27:54;;;;;;;5.20;3.60;;;;;;;6.63;79.73;98784.19;6291557;28;20263;-41
2022/11/27 11:31:02;;;;;;;7.30;4.07;;;;;;;6.72;75.94;98787.28;6292653;28;20708;-41
2022/11/27 11:34:25;;;;;;;5.33;3.27;;;;;;;6.71;72.86;98785.59;6295031;28;20602;-41
2022/11/27 11:37:33;;;;;;;4.33;3.23;;;;;;;6.79;71.95;98779.06;6268600;28;20372;-41
2022/11/27 11:40:36;;;;;;;4.43;2.40;;;;;;;6.90;72.48;98789.03;6269968;28;20782;-42
2022/11/27 11:43:39;;;;;;;5.97;3.10;;;;;;;6.94;70.25;98788.00;6270032;28;20247;-41
2022/11/27 11:46:50;;;;;;;5.23;2.20;;;;;;;7.00;67.29;98769.31;6270198;28;20329;-41
2022/11/27 11:49:54;;;;;;;2.87;2.17;;;;;;;7.39;66.28;98764.72;6268939;28;20246;-41
2022/11/27 11:53:14;;;;;;;5.30;1.97;;;;;;;7.87;60.48;98765.78;6275364;28;20380;-42
2022/11/27 11:56:37;;;;;;;3.97;2.00;;;;;;;8.30;58.41;98761.72;6285387;28;20250;-42
2022/11/27 11:59:54;;;;;;;4.90;0.70;;;;;;;8.29;51.67;98748.66;6293367;28;20784;-46
2022/11/27 12:03:22;;;;;;;3.13;1.40;;;;;;;8.67;52.77;98744.00;6293816;28;20450;-41
2022/11/27 12:06:55;;;;;;;2.30;1.43;;;;;;;8.98;52.14;98737.84;6287624;28;20707;-42
2022/11/27 12:10:28;;;;;;;2.67;1.33;;;;;;;9.41;53.13;98742.31;6288837;28;20222;-42
2022/11/27 12:13:33;;;;;;;4.70;1.20;;;;;;;9.57;50.79;98735.22;6285142;28;20315;-42
2022/11/27 12:16:59;;;;;;;3.73;1.40;;;;;;;9.45;50.74;98735.94;6289304;28;20233;-42
2022/11/27 12:20:27;;;;;;;3.00;1.53;;;;;;;9.07;51.87;98727.63;6289625;28;20244;-43
2022/11/27 12:23:39;;;;;;;4.43;1.47;;;;;;;8.94;54.24;98731.91;6286072;28;20322;-42
2022/11/27 12:27:07;;;;;;;2.57;1.60;;;;;;;8.78;54.59;98725.81;6289012;28;20313;-42
2022/11/27 12:30:14;;;;;;;4.20;2.07;;;;;;;8.62;56.06;98725.81;6276284;28;20305;-42
2022/11/27 12:33:38;;;;;;;3.93;2.30;;;;;;;9.15;55.53;98716.66;6290902;28;20603;-42
2022/11/27 12:36:55;;;;;;;6.10;2.50;;;;;;;10.20;53.53;98708.53;6291963;28;20317;-42
2022/11/27 12:40:06;;;;;;;3.93;2.47;;;;;;;10.95;52.02;98714.31;6289749;28;20233;-42
2022/11/27 12:43:23;;;;;;;6.57;3.33;;;;;;;11.90;47.59;98699.06;6287977;28;20680;-43
2022/11/27 12:46:30;;;;;;;7.37;3.50;;;;;;;13.92;43.14;98696.50;6294775;28;20230;-43
2022/11/27 12:49:41;;;;;;;4.73;3.00;;;;;;;14.98;39.74;98705.72;6291732;28;20230;-44
2022/11/27 12:52:50;;;;;;;5.07;2.87;;;;;;;14.79;39.22;98703.72;6288461;28;20709;-42
2022/11/27 12:56:02;;;;;;;5.63;3.37;;;;;;;11.65;45.85;98710.47;6291463;28;20264;-45
2022/11/27 12:59:13;;;;;;;5.57;2.83;;;;;;;10.06;49.91;98711.16;6285942;28;20226;-45
2022/11/27 13:02:27;;;;;;;5.13;3.40;;;;;;;9.31;54.54;98703.44;6286153;28;20234;-42
2022/11/27 13:05:42;;;;;;;7.73;4.13;;;;;;;8.62;57.86;98702.13;6282568;28;20582;-45
2022/11/27 13:09:00;;;;;;;9.13;3.43;;;;;;;8.31;59.15;98704.72;6275491;28;20238;-47
2022/11/27 13:12:03;;;;;;;5.10;2.80;;;;;;;8.29;59.63;98707.44;6284343;28;20219;-44
2022/11/27 13:15:31;;;;;;;9.57;3.60;;;;;;;8.03;58.91;98700.13;6286354;28;20217;-43
2022/11/27 13:18:40;;;;;;;5.50;3.33;;;;;;;7.79;59.86;98702.25;6273456;28;20222;-44
2022/11/27 13:21:45;;;;;;;6.97;3.57;;;;;;;7.83;60.09;98703.81;6281139;28;20266;-44
2022/11/27 13:24:47;;;;;;;7.20;3.20;;;;;;;7.82;59.53;98699.47;6263786;28;20721;-43
2022/11/27 13:27:52;;;;;;;6.13;3.90;;;;;;;7.61;60.24;98692.72;6281616;28;20283;-44
2022/11/27 13:30:58;;;;;;;8.27;3.70;;;;;;;7.37;60.75;98693.06;6287497;28;20236;-44
2022/11/27 13:34:17;;;;;;;8.30;3.43;;;;;;;7.24;62.16;98701.63;6287593;28;20244;-44
2022/11/27 13:37:35;;;;;;;11.27;4.87;;;;;;;6.93;63.59;98689.19;6286826;28;20231;-44
2022/11/27 13:40:45;;;;;;;7.60;4.17;;;;;;;6.86;64.34;98688.66;6280145;28;20357;-44
2022/11/27 13:43:49;;;;;;;7.90;4.30;;;;;;;6.83;65.78;98685.31;6277258;28;20238;-44
2022/11/27 13:46:56;;;;;;;7.40;4.50;;;;;;;6.71;66.04;98693.78;6280960;28;20238;-45
2022/11/27 13:50:06;;;;;;;10.53;4.67;;;;;;;6.65;66.53;98690.53;6286024;28;20585;-44
2022/11/27 13:53:10;;;;;;;5.57;3.70;;;;;;;6.61;65.98;98690.75;6279280;28;20238;-44
2022/11/27 13:56:12;;;;;;;4.80;3.17;;;;;;;6.54;66.83;98687.59;6263114;28;20353;-44
2022/11/27 13:59:20;;;;;;;7.00;3.40;;;;;;;6.47;67.78;98683.56;6285836;28;20311;-44
2022/11/27 14:02:24;;;;;;;7.17;3.50;;;;;;;6.36;68.23;98682.38;6291792;28;20238;-44
2022/11/27 14:05:37;;;;;;;4.97;3.33;;;;;;;6.18;69.78;98677.09;6273327;28;20221;-47
2022/11/27 14:08:49;;;;;;;5.90;3.23;;;;;;;6.04;70.17;98681.25;6290826;28;20234;-45
2022/11/27 14:11:52;;;;;;;6.70;3.10;;;;;;;5.94;70.59;98678.19;6290221;28;20221;-46
2022/11/27 14:15:05;;;;;;;6.47;3.10;;;;;;;5.79;71.31;98678.88;6294711;28;20627;-44
2022/11/27 14:18:20;;;;;;;9.93;3.20;;;;;;;5.53;72.95;98687.88;6281829;28;20312;-44
2022/11/27 14:21:39;;;;;;;5.50;2.70;;;;;;;5.29;73.88;98681.09;6289942;28;20259;-44
2022/11/27 14:24:45;;;;;;;3.90;2.93;;;;;;;5.14;74.83;98678.22;6282125;28;20229;-44
2022/11/27 14:28:02;;;;;;;4.53;2.87;;;;;;;4.96;75.75;98676.38;6285519;28;20319;-45
2022/11/27 14:31:05;;;;;;;7.93;3.27;;;;;;;4.76;76.49;98669.34;6287396;28;20279;-44